createdAt,value
2022-09-09T00:00:27.499Z,17.87
2022-09-09T00:02:55.990Z,17.79
2022-09-09T00:05:24.250Z,17.77
2022-09-09T00:07:51.926Z,17.75
2022-09-09T00:10:19.626Z,17.74
2022-09-09T00:12:47.608Z,17.72
2022-09-09T00:15:15.366Z,17.69
2022-09-09T00:17:43.008Z,17.67
2022-09-09T00:20:10.682Z,17.62
2022-09-09T00:22:38.614Z,17.58
2022-09-09T00:25:06.214Z,17.54
2022-09-09T00:27:33.850Z,17.49
2022-09-09T00:30:01.481Z,17.46
2022-09-09T00:32:29.415Z,17.39
2022-09-09T00:34:57.037Z,17.35
2022-09-09T00:37:25.031Z,17.32
2022-09-09T00:39:55.827Z,17.30
2022-09-09T00:42:23.961Z,17.30
2022-09-09T00:44:51.743Z,17.30
2022-09-09T00:47:19.794Z,17.32
2022-09-09T00:49:47.748Z,17.34
2022-09-09T00:52:19.609Z,17.35
2022-09-09T00:54:47.763Z,17.33
2022-09-09T00:57:15.509Z,17.31
2022-09-09T00:59:43.219Z,17.30
2022-09-09T01:02:11.200Z,17.27
2022-09-09T01:04:38.787Z,17.25
2022-09-09T01:07:06.674Z,17.21
2022-09-09T01:09:34.417Z,17.16
2022-09-09T01:12:02.272Z,17.14
2022-09-09T01:14:29.901Z,17.09
2022-09-09T01:16:57.622Z,17.04
2022-09-09T01:19:25.217Z,17.01
2022-09-09T01:21:53.182Z,16.99
2022-09-09T01:24:20.847Z,16.95
2022-09-09T01:26:48.530Z,16.93
2022-09-09T01:29:18.484Z,16.92
2022-09-09T01:31:46.373Z,16.89
2022-09-09T01:34:14.407Z,16.84
2022-09-09T01:36:42.061Z,16.81
2022-09-09T01:39:09.625Z,16.76
2022-09-09T01:41:37.567Z,16.75
2022-09-09T01:44:05.215Z,16.74
2022-09-09T01:46:32.894Z,16.73
2022-09-09T01:49:00.506Z,16.74
2022-09-09T01:51:28.503Z,16.78
2022-09-09T01:53:56.498Z,16.81
2022-09-09T01:56:24.122Z,16.85
2022-09-09T01:58:52.140Z,16.89
2022-09-09T02:01:19.842Z,16.92
2022-09-09T02:03:47.786Z,16.93
2022-09-09T02:06:15.467Z,16.97
2022-09-09T02:08:43.589Z,17.00
2022-09-09T02:11:11.345Z,17.01
2022-09-09T02:13:39.269Z,17.04
2022-09-09T02:16:06.859Z,17.06
2022-09-09T02:18:34.934Z,17.09
2022-09-09T02:21:02.815Z,17.12
2022-09-09T02:23:30.707Z,17.14
2022-09-09T02:25:58.391Z,17.14
2022-09-09T02:28:26.537Z,17.16
2022-09-09T02:30:56.385Z,17.16
2022-09-09T02:33:24.359Z,17.18
2022-09-09T02:35:52.094Z,17.18
2022-09-09T02:38:19.664Z,17.18
2022-09-09T02:40:47.950Z,17.14
2022-09-09T02:43:17.445Z,17.11
2022-09-09T02:45:45.134Z,17.07
2022-09-09T02:48:12.831Z,17.04
2022-09-09T02:50:40.480Z,17.00
2022-09-09T02:53:08.722Z,16.96
2022-09-09T02:55:37.790Z,16.93
2022-09-09T02:58:05.650Z,16.91
2022-09-09T03:00:33.585Z,16.89
2022-09-09T03:03:01.438Z,16.84
2022-09-09T03:05:29.153Z,16.79
2022-09-09T03:07:56.819Z,16.74
2022-09-09T03:10:24.407Z,16.70
2022-09-09T03:12:52.554Z,16.67
2022-09-09T03:15:20.212Z,16.64
2022-09-09T03:17:48.293Z,16.63
2022-09-09T03:20:15.945Z,16.61
2022-09-09T03:22:46.173Z,16.60
2022-09-09T03:25:13.885Z,16.58
2022-09-09T03:27:41.732Z,16.56
2022-09-09T03:30:09.393Z,16.59
2022-09-09T03:32:38.017Z,16.62
2022-09-09T03:35:05.723Z,16.63
2022-09-09T03:37:33.346Z,16.66
2022-09-09T03:40:01.068Z,16.67
2022-09-09T03:42:28.961Z,16.69
2022-09-09T03:44:58.963Z,16.70
2022-09-09T03:47:26.865Z,16.72
2022-09-09T03:49:54.455Z,16.72
2022-09-09T03:52:23.850Z,16.71
2022-09-09T03:54:52.059Z,16.69
2022-09-09T03:57:19.837Z,16.68
2022-09-09T03:59:47.508Z,16.64
2022-09-09T04:02:15.479Z,16.61
2022-09-09T04:04:43.149Z,16.59
2022-09-09T04:07:10.749Z,16.56
2022-09-09T04:09:38.498Z,16.53
2022-09-09T04:12:07.817Z,16.51
2022-09-09T04:14:35.508Z,16.50
2022-09-09T04:17:07.209Z,16.48
2022-09-09T04:19:34.978Z,16.47
2022-09-09T04:22:02.980Z,16.45
2022-09-09T04:24:30.607Z,16.45
2022-09-09T04:26:58.573Z,16.44
2022-09-09T04:29:26.219Z,16.44
2022-09-09T04:31:54.384Z,16.45
2022-09-09T04:34:22.296Z,16.45
2022-09-09T04:36:49.973Z,16.47
2022-09-09T04:39:17.583Z,16.49
2022-09-09T04:41:45.491Z,16.49
2022-09-09T04:44:13.165Z,16.51
2022-09-09T04:46:41.960Z,16.53
2022-09-09T04:49:14.489Z,16.54
2022-09-09T04:51:43.570Z,16.54
2022-09-09T04:54:11.761Z,16.54
2022-09-09T04:56:39.380Z,16.54
2022-09-09T04:59:06.960Z,16.54
2022-09-09T05:01:34.793Z,16.55
2022-09-09T05:04:03.784Z,16.57
2022-09-09T05:06:32.571Z,16.61
2022-09-09T05:09:00.905Z,16.65
2022-09-09T05:11:28.463Z,16.67
2022-09-09T05:13:56.158Z,16.72
2022-09-09T05:16:24.047Z,16.76
2022-09-09T05:18:51.810Z,16.79
2022-09-09T05:21:19.783Z,16.82
2022-09-09T05:23:47.508Z,16.85
2022-09-09T05:26:17.446Z,16.88
2022-09-09T05:28:45.518Z,16.90
2022-09-09T05:31:14.061Z,16.93
2022-09-09T05:33:44.169Z,16.95
2022-09-09T05:36:14.362Z,16.97
2022-09-09T05:38:41.944Z,16.98
2022-09-09T05:41:09.632Z,17.00
2022-09-09T05:43:38.490Z,17.02
2022-09-09T05:46:06.670Z,17.03
2022-09-09T05:48:34.423Z,17.05
2022-09-09T05:51:02.228Z,17.07
2022-09-09T05:53:33.384Z,17.10
2022-09-09T05:56:01.054Z,17.11
2022-09-09T05:58:29.062Z,17.11
2022-09-09T06:00:56.730Z,17.12
2022-09-09T06:03:24.812Z,17.14
2022-09-09T06:05:52.523Z,17.15
2022-09-09T06:08:20.168Z,17.20
2022-09-09T06:10:47.785Z,17.26
2022-09-09T06:13:15.843Z,17.29
2022-09-09T06:15:43.522Z,17.33
2022-09-09T06:18:11.172Z,17.34
2022-09-09T06:20:39.129Z,17.39
2022-09-09T06:23:07.229Z,17.42
2022-09-09T06:25:35.303Z,17.44
2022-09-09T06:28:03.513Z,17.46
2022-09-09T06:30:31.630Z,17.46
2022-09-09T06:33:00.229Z,17.46
2022-09-09T06:35:27.972Z,17.47
2022-09-09T06:37:55.611Z,17.47
2022-09-09T06:40:23.192Z,17.46
2022-09-09T06:42:50.969Z,17.46
2022-09-09T06:45:18.763Z,17.46
2022-09-09T06:47:46.568Z,17.47
2022-09-09T06:50:15.583Z,17.47
2022-09-09T06:52:43.167Z,17.48
2022-09-09T06:55:10.830Z,17.50
2022-09-09T06:57:38.530Z,17.55
2022-09-09T07:00:06.228Z,17.60
2022-09-09T07:02:40.167Z,17.62
2022-09-09T07:05:07.932Z,17.63
2022-09-09T07:07:35.593Z,17.63
2022-09-09T07:10:04.451Z,17.61
2022-09-09T07:12:32.031Z,17.59
2022-09-09T07:14:59.755Z,17.52
2022-09-09T07:17:27.493Z,17.28
2022-09-09T07:19:55.408Z,17.07
2022-09-09T07:22:23.812Z,16.91
2022-09-09T07:24:51.509Z,16.85
2022-09-09T07:27:19.209Z,16.89
2022-09-09T07:29:47.167Z,16.94
2022-09-09T07:32:14.792Z,16.97
2022-09-09T07:34:42.423Z,17.01
2022-09-09T07:37:12.855Z,17.05
2022-09-09T07:39:40.807Z,17.09
2022-09-09T07:42:08.927Z,17.13
2022-09-09T07:44:37.510Z,17.19
2022-09-09T07:47:05.104Z,17.26
2022-09-09T07:49:33.147Z,17.30
2022-09-09T07:52:00.803Z,17.32
2022-09-09T07:54:28.915Z,17.37
2022-09-09T07:56:56.614Z,17.45
2022-09-09T07:59:25.449Z,17.57
2022-09-09T08:01:55.802Z,17.69
2022-09-09T08:04:23.696Z,17.77
2022-09-09T08:06:51.393Z,17.89
2022-09-09T08:09:19.274Z,18.07
2022-09-09T08:11:47.011Z,18.21
2022-09-09T08:14:14.654Z,18.31
2022-09-09T08:16:42.357Z,18.39
2022-09-09T08:19:10.281Z,18.43
2022-09-09T08:21:37.917Z,18.45
2022-09-09T08:24:06.245Z,18.46
2022-09-09T08:26:34.665Z,18.50
2022-09-09T08:29:02.359Z,18.53
2022-09-09T08:31:30.375Z,18.55
2022-09-09T08:33:58.117Z,18.57
2022-09-09T08:36:26.771Z,18.60
2022-09-09T08:38:55.607Z,18.62
2022-09-09T08:41:23.431Z,18.67
2022-09-09T08:43:51.116Z,18.80
2022-09-09T08:46:19.266Z,18.99
2022-09-09T08:48:46.960Z,19.17
2022-09-09T08:51:14.596Z,19.25
2022-09-09T08:53:42.279Z,19.28
2022-09-09T08:56:09.836Z,19.29
2022-09-09T08:58:37.814Z,19.34
2022-09-09T09:01:05.589Z,19.40
2022-09-09T09:03:33.673Z,19.40
2022-09-09T09:06:01.389Z,19.37
2022-09-09T09:08:29.879Z,19.38
2022-09-09T09:10:58.118Z,19.39
2022-09-09T09:13:26.062Z,19.48
2022-09-09T09:15:54.230Z,19.60
2022-09-09T09:18:21.950Z,19.70
2022-09-09T09:20:49.637Z,19.93
2022-09-09T09:23:17.645Z,20.17
2022-09-09T09:25:45.481Z,20.28
2022-09-09T09:28:13.178Z,20.46
2022-09-09T09:30:40.909Z,20.58
2022-09-09T09:33:08.529Z,20.66
2022-09-09T09:35:40.465Z,20.72
2022-09-09T09:40:58.985Z,21.03
2022-09-09T09:43:26.812Z,21.20
2022-09-09T09:46:16.376Z,21.25
2022-09-09T09:48:43.240Z,21.30
2022-09-09T09:51:11.672Z,21.57
2022-09-09T09:53:39.553Z,22.05
2022-09-09T09:56:07.915Z,22.53
2022-09-09T09:58:35.607Z,23.09
2022-09-09T10:01:03.367Z,23.92
2022-09-09T10:03:31.022Z,24.97
2022-09-09T10:05:59.001Z,25.34
2022-09-09T10:08:26.698Z,25.25
2022-09-09T10:10:54.680Z,24.75
2022-09-09T10:13:22.375Z,24.26
2022-09-09T10:15:51.409Z,23.95
2022-09-09T10:18:19.098Z,23.67
2022-09-09T10:20:47.130Z,23.68
2022-09-09T10:23:15.048Z,23.70
2022-09-09T10:25:42.738Z,23.81
2022-09-09T10:28:10.444Z,24.03
2022-09-09T10:30:38.272Z,24.68
2022-09-09T10:33:06.792Z,25.02
2022-09-09T10:35:34.640Z,25.03
2022-09-09T10:38:02.722Z,25.11
2022-09-09T10:40:31.735Z,24.80
2022-09-09T10:42:59.658Z,24.70
2022-09-09T10:45:27.305Z,25.12
2022-09-09T10:47:54.956Z,25.62
2022-09-09T10:50:22.716Z,25.73
2022-09-09T10:52:50.402Z,25.41
2022-09-09T10:55:18.144Z,25.03
2022-09-09T10:57:45.914Z,24.51
2022-09-09T11:00:13.590Z,23.95
2022-09-09T11:02:43.389Z,23.39
2022-09-09T11:05:10.958Z,22.98
2022-09-09T11:07:39.419Z,22.60
2022-09-09T11:10:08.504Z,22.19
2022-09-09T11:12:36.164Z,21.82
2022-09-09T11:15:03.808Z,21.64
2022-09-09T11:17:31.516Z,21.52
2022-09-09T11:19:59.481Z,21.39
2022-09-09T11:22:27.133Z,21.32
2022-09-09T11:24:55.827Z,21.16
2022-09-09T11:27:23.487Z,20.99
2022-09-09T11:29:51.364Z,21.50
2022-09-09T11:32:19.033Z,22.64
2022-09-09T11:34:46.775Z,23.90
2022-09-09T11:37:14.445Z,25.15
2022-09-09T11:39:42.417Z,26.13
2022-09-09T11:42:10.250Z,27.16
2022-09-09T11:47:07.249Z,28.65
2022-09-09T11:49:35.130Z,29.43
2022-09-09T11:52:02.935Z,29.58
2022-09-09T11:54:30.580Z,29.36
2022-09-09T11:56:59.017Z,29.15
2022-09-09T11:59:26.730Z,29.55
2022-09-09T12:01:54.719Z,29.96
2022-09-09T12:04:23.216Z,30.23
2022-09-09T12:06:52.016Z,29.88
2022-09-09T12:09:19.689Z,28.57
2022-09-09T12:11:47.335Z,27.75
2022-09-09T12:14:14.999Z,28.13
2022-09-09T12:16:44.008Z,28.64
2022-09-09T12:19:12.344Z,28.98
2022-09-09T12:21:40.232Z,28.56
2022-09-09T12:24:07.984Z,28.77
2022-09-09T12:26:35.923Z,28.68
2022-09-09T12:29:04.579Z,29.03
2022-09-09T12:31:32.294Z,29.09
2022-09-09T12:34:00.321Z,28.45
2022-09-09T12:36:27.969Z,27.32
2022-09-09T12:38:55.917Z,26.30
2022-09-09T12:41:23.622Z,25.63
2022-09-09T12:43:52.270Z,25.11
2022-09-09T12:46:20.031Z,24.59
2022-09-09T12:48:47.857Z,24.14
2022-09-09T12:51:15.557Z,23.71
2022-09-09T12:53:44.233Z,23.24
2022-09-09T12:56:11.913Z,23.02
2022-09-09T12:58:39.727Z,22.92
2022-09-09T13:01:07.692Z,23.02
2022-09-09T13:03:37.570Z,23.11
2022-09-09T13:06:05.607Z,23.38
2022-09-09T13:08:33.299Z,23.81
2022-09-09T13:11:03.159Z,24.12
2022-09-09T13:13:31.514Z,24.04
2022-09-09T13:15:59.106Z,23.93
2022-09-09T13:18:26.796Z,23.86
2022-09-09T13:20:54.688Z,23.79
2022-09-09T13:23:22.418Z,23.72
2022-09-09T13:25:50.074Z,23.57
2022-09-09T13:28:17.712Z,23.37
2022-09-09T13:30:45.600Z,23.14
2022-09-09T13:33:13.374Z,22.95
2022-09-09T13:35:41.079Z,22.81
2022-09-09T13:40:38.060Z,22.53
2022-09-09T13:43:06.632Z,22.45
2022-09-09T13:45:35.934Z,22.43
2022-09-09T13:48:03.708Z,22.43
2022-09-09T13:50:32.154Z,22.38
2022-09-09T13:53:00.284Z,22.30
2022-09-09T13:55:27.884Z,22.23
2022-09-09T13:57:55.608Z,22.15
2022-09-09T14:00:23.369Z,22.09
2022-09-09T14:02:52.289Z,22.03
2022-09-09T14:05:20.041Z,22.00
2022-09-09T14:07:52.482Z,22.00
2022-09-09T14:10:20.769Z,21.99
2022-09-09T14:12:49.005Z,21.92
2022-09-09T14:15:17.296Z,21.83
2022-09-09T14:17:44.981Z,21.70
2022-09-09T14:20:13.191Z,20.65
2022-09-09T14:22:42.027Z,19.59
2022-09-09T14:25:09.661Z,19.03
2022-09-09T14:27:37.366Z,18.72
2022-09-09T14:30:05.729Z,18.62
2022-09-09T14:32:34.195Z,18.66
2022-09-09T14:35:01.842Z,18.73
2022-09-09T14:37:29.505Z,18.79
2022-09-09T14:39:57.423Z,18.83
2022-09-09T14:42:25.552Z,18.87
2022-09-09T14:44:53.227Z,18.93
2022-09-09T14:47:21.006Z,18.99
2022-09-09T14:49:51.011Z,19.06
2022-09-09T14:52:19.015Z,19.20
2022-09-09T14:54:46.778Z,19.38
2022-09-09T14:57:14.975Z,19.51
2022-09-09T14:59:42.944Z,19.57
2022-09-09T15:02:11.629Z,19.57
2022-09-09T15:04:39.434Z,19.19
2022-09-09T15:07:07.064Z,18.87
2022-09-09T15:09:34.749Z,18.70
2022-09-09T15:12:04.080Z,18.73
2022-09-09T15:14:31.943Z,18.85
2022-09-09T15:16:59.526Z,18.94
2022-09-09T15:19:27.379Z,19.02
2022-09-09T15:21:56.686Z,19.04
2022-09-09T15:24:24.411Z,19.08
2022-09-09T15:26:52.150Z,19.13
2022-09-09T15:29:20.059Z,19.16
2022-09-09T15:31:48.771Z,19.14
2022-09-09T15:34:16.387Z,19.10
2022-09-09T15:36:44.080Z,19.07
2022-09-09T15:39:13.718Z,19.03
2022-09-09T15:41:41.798Z,19.01
2022-09-09T15:44:09.403Z,18.98
2022-09-09T15:46:37.199Z,18.87
2022-09-09T15:49:04.815Z,18.56
2022-09-09T15:51:48.197Z,18.23
2022-09-09T15:54:17.709Z,17.98
2022-09-09T15:56:45.504Z,17.76
2022-09-09T15:59:13.153Z,17.62
2022-09-09T16:01:41.141Z,17.50
2022-09-09T16:04:09.083Z,17.38
2022-09-09T16:06:37.444Z,17.31
2022-09-09T16:09:05.391Z,17.25
2022-09-09T16:11:33.408Z,17.18
2022-09-09T16:14:01.301Z,17.14
2022-09-09T16:16:28.954Z,17.11
2022-09-09T16:18:56.554Z,17.10
2022-09-09T16:21:25.291Z,17.08
2022-09-09T16:23:54.437Z,17.08
2022-09-09T16:26:22.125Z,17.08
2022-09-09T16:28:49.845Z,17.12
2022-09-09T16:31:17.617Z,17.15
2022-09-09T16:33:45.570Z,17.19
2022-09-09T16:36:13.320Z,17.24
2022-09-09T16:38:40.994Z,17.29
2022-09-09T16:41:09.098Z,17.32
2022-09-09T16:43:37.517Z,17.36
2022-09-09T16:46:05.728Z,17.39
2022-09-09T16:48:34.172Z,17.40
2022-09-09T16:51:01.852Z,17.44
2022-09-09T16:53:29.917Z,17.46
2022-09-09T16:55:57.515Z,17.46
2022-09-09T16:58:25.278Z,17.49
2022-09-09T17:00:53.330Z,17.47
2022-09-09T17:03:22.123Z,17.48
2022-09-09T17:05:49.791Z,17.48
2022-09-09T17:08:17.517Z,17.50
2022-09-09T17:10:45.527Z,17.51
2022-09-09T17:13:13.834Z,17.52
2022-09-09T17:15:43.460Z,17.54
2022-09-09T17:18:11.463Z,17.52
2022-09-09T17:20:46.439Z,17.50
2022-09-09T17:23:16.646Z,17.47
2022-09-09T17:25:44.367Z,17.44
2022-09-09T17:28:12.111Z,17.39
2022-09-09T17:30:39.735Z,17.32
2022-09-09T17:33:08.078Z,17.24
2022-09-09T17:35:35.839Z,17.17
2022-09-09T17:38:03.485Z,17.11
2022-09-09T17:40:31.446Z,17.00
2022-09-09T17:42:59.507Z,16.91
2022-09-09T17:45:28.389Z,16.86
2022-09-09T17:47:56.096Z,16.78
2022-09-09T17:50:23.882Z,16.70
2022-09-09T17:52:51.494Z,16.63
2022-09-09T17:55:19.198Z,16.57
2022-09-09T17:57:47.303Z,16.53
2022-09-09T18:00:15.012Z,16.50
2022-09-09T18:02:42.823Z,16.48
2022-09-09T18:05:11.231Z,16.49
2022-09-09T18:07:39.021Z,16.47
2022-09-09T18:10:07.124Z,16.47
2022-09-09T18:12:35.083Z,16.46
2022-09-09T18:15:04.274Z,16.47
2022-09-09T18:17:32.270Z,16.46
2022-09-09T18:20:00.395Z,16.47
2022-09-09T18:22:28.200Z,16.48
2022-09-09T18:24:56.653Z,16.48
2022-09-09T18:27:30.606Z,16.51
2022-09-09T18:29:58.237Z,16.51
2022-09-09T18:32:27.141Z,16.53
2022-09-09T18:34:56.183Z,16.54
2022-09-09T18:37:23.917Z,16.53
2022-09-09T18:39:51.707Z,16.51
2022-09-09T18:42:19.817Z,16.47
2022-09-09T18:44:47.462Z,16.45
2022-09-09T18:47:15.129Z,16.42
2022-09-09T18:49:42.822Z,16.40
2022-09-09T18:52:12.932Z,16.36
2022-09-09T18:54:44.265Z,16.34
2022-09-09T18:57:11.925Z,16.31
2022-09-09T18:59:39.903Z,16.30
2022-09-09T19:02:07.896Z,16.27
2022-09-09T19:04:35.810Z,16.26
2022-09-09T19:07:03.454Z,16.27
2022-09-09T19:09:32.584Z,16.26
2022-09-09T19:12:01.249Z,16.28
2022-09-09T19:14:29.121Z,16.28
2022-09-09T19:16:56.917Z,16.29
2022-09-09T19:19:24.551Z,16.27
2022-09-09T19:21:53.296Z,16.25
2022-09-09T19:24:20.878Z,16.23
2022-09-09T19:26:48.605Z,16.22
2022-09-09T19:29:16.646Z,16.20
2022-09-09T19:31:59.531Z,16.19
2022-09-09T19:34:32.176Z,16.17
2022-09-09T19:37:00.397Z,16.16
2022-09-09T19:39:28.065Z,16.16
2022-09-09T19:41:55.708Z,16.15
2022-09-09T19:44:23.449Z,16.12
2022-09-09T19:46:51.408Z,16.10
2022-09-09T19:49:19.165Z,16.07
2022-09-09T19:51:47.124Z,16.04
2022-09-09T19:54:15.294Z,16.01
2022-09-09T19:56:43.001Z,15.98
2022-09-09T19:59:10.953Z,15.97
2022-09-09T20:01:40.336Z,15.96
2022-09-09T20:04:09.120Z,15.94
2022-09-09T20:06:36.789Z,15.92
2022-09-09T20:09:04.549Z,15.90
2022-09-09T20:11:32.251Z,15.90
2022-09-09T20:14:00.523Z,15.88
2022-09-09T20:16:29.125Z,15.89
2022-09-09T20:18:56.973Z,15.90
2022-09-09T20:21:24.655Z,15.91
2022-09-09T20:23:52.653Z,15.89
2022-09-09T20:26:21.079Z,15.89
2022-09-09T20:28:50.463Z,15.91
2022-09-09T20:31:19.172Z,15.90
2022-09-09T20:33:47.750Z,15.93
2022-09-09T20:36:15.429Z,15.96
2022-09-09T20:38:43.461Z,15.97
2022-09-09T20:41:14.545Z,15.97
2022-09-09T20:43:43.178Z,15.98
2022-09-09T20:46:10.962Z,15.97
2022-09-09T20:48:39.021Z,15.98
2022-09-09T20:51:06.883Z,15.99
2022-09-09T20:53:35.145Z,15.98
2022-09-09T20:56:02.825Z,16.00
2022-09-09T20:58:33.479Z,16.02
2022-09-09T21:01:01.580Z,16.04
2022-09-09T21:03:31.195Z,16.05
2022-09-09T21:05:59.444Z,16.04
2022-09-09T21:08:27.182Z,16.03
2022-09-09T21:10:54.821Z,16.03
2022-09-09T21:13:24.252Z,16.01
2022-09-09T21:15:52.233Z,15.99
2022-09-09T21:18:20.075Z,15.98
2022-09-09T21:20:47.700Z,15.99
2022-09-09T21:23:15.762Z,16.03
2022-09-09T21:25:43.432Z,16.07
2022-09-09T21:28:11.099Z,16.10
2022-09-09T21:30:43.867Z,16.12
2022-09-09T21:33:12.129Z,16.14
2022-09-09T21:35:40.070Z,16.15
2022-09-09T21:38:07.691Z,16.14
2022-09-09T21:40:35.414Z,16.14
2022-09-09T21:43:04.346Z,16.12
2022-09-09T21:45:32.085Z,16.10
2022-09-09T21:48:00.491Z,16.07
2022-09-09T21:50:28.709Z,16.05
2022-09-09T21:52:56.652Z,16.04
2022-09-09T21:55:24.332Z,16.05
2022-09-09T21:57:51.975Z,16.06
2022-09-09T22:00:19.684Z,16.11
2022-09-09T22:02:47.758Z,16.16
2022-09-09T22:05:15.439Z,16.18
2022-09-09T22:07:43.181Z,16.22
2022-09-09T22:10:13.114Z,16.23
2022-09-09T22:12:40.751Z,16.28
2022-09-09T22:15:09.042Z,16.31
2022-09-09T22:17:36.768Z,16.28
2022-09-09T22:20:05.055Z,16.20
2022-09-09T22:22:32.817Z,16.14
2022-09-09T22:25:01.690Z,16.09
2022-09-09T22:27:29.480Z,16.09
2022-09-09T22:29:57.170Z,16.08
2022-09-09T22:32:25.409Z,16.08
2022-09-09T22:34:53.071Z,16.07
2022-09-09T22:37:21.015Z,16.08
2022-09-09T22:39:49.778Z,16.08
2022-09-09T22:42:18.564Z,16.08
2022-09-09T22:44:46.195Z,16.09
2022-09-09T22:47:13.997Z,16.10
2022-09-09T22:49:42.359Z,16.11
2022-09-09T22:52:10.603Z,16.10
2022-09-09T22:54:38.239Z,16.08
2022-09-09T22:57:07.723Z,16.06
2022-09-09T22:59:35.456Z,16.04
2022-09-09T23:02:03.432Z,16.02
2022-09-09T23:04:31.103Z,16.01
2022-09-09T23:06:59.241Z,16.00
2022-09-09T23:09:26.879Z,15.99
2022-09-09T23:11:58.771Z,15.98
2022-09-09T23:14:26.873Z,15.97
2022-09-09T23:16:55.164Z,15.96
2022-09-09T23:19:22.792Z,15.97
2022-09-09T23:21:50.910Z,15.98
2022-09-09T23:24:19.194Z,15.98
2022-09-09T23:26:47.546Z,15.96
2022-09-09T23:29:15.440Z,15.96
2022-09-09T23:31:43.577Z,15.96
2022-09-09T23:34:11.492Z,15.98
2022-09-09T23:36:39.289Z,16.02
2022-09-09T23:39:07.056Z,16.07
2022-09-09T23:41:35.402Z,16.11
2022-09-09T23:44:03.445Z,16.13
2022-09-09T23:46:31.039Z,16.17
2022-09-09T23:48:58.730Z,16.18
2022-09-09T23:51:28.238Z,16.18
2022-09-09T23:53:57.001Z,16.20
2022-09-09T23:56:24.826Z,16.20
2022-09-09T23:58:52.395Z,16.19
